sensor_id;sensor_type;location;lat;lon;timestamp;P1;durP1;ratioP1;P2;durP2;ratioP2
16862;SDS011;52193;48.216;-1.698;2023-06-22T00:00:13;3.45;;;3.15;;
16862;SDS011;52193;48.216;-1.698;2023-06-22T00:02:40;3.88;;;3.10;;
16862;SDS011;52193;48.216;-1.698;2023-06-22T00:05:07;2.75;;;2.60;;
16862;SDS011;52193;48.216;-1.698;2023-06-22T00:07:35;3.35;;;3.15;;
16862;SDS011;52193;48.216;-1.698;2023-06-22T00:10:02;3.25;;;2.95;;
16862;SDS011;52193;48.216;-1.698;2023-06-22T00:12:30;3.30;;;3.03;;
16862;SDS011;52193;48.216;-1.698;2023-06-22T00:14:57;4.38;;;2.95;;
16862;SDS011;52193;48.216;-1.698;2023-06-22T00:17:24;3.20;;;2.92;;
16862;SDS011;52193;48.216;-1.698;2023-06-22T00:19:51;4.00;;;3.42;;
16862;SDS011;52193;48.216;-1.698;2023-06-22T00:22:20;3.80;;;3.50;;
16862;SDS011;52193;48.216;-1.698;2023-06-22T00:24:54;3.72;;;3.30;;
16862;SDS011;52193;48.216;-1.698;2023-06-22T00:27:21;3.28;;;3.00;;
16862;SDS011;52193;48.216;-1.698;2023-06-22T00:29:48;3.70;;;3.40;;
16862;SDS011;52193;48.216;-1.698;2023-06-22T00:32:15;3.40;;;3.10;;
16862;SDS011;52193;48.216;-1.698;2023-06-22T00:34:43;3.67;;;3.30;;
16862;SDS011;52193;48.216;-1.698;2023-06-22T00:37:10;3.40;;;3.10;;
16862;SDS011;52193;48.216;-1.698;2023-06-22T00:39:37;3.50;;;3.03;;
16862;SDS011;52193;48.216;-1.698;2023-06-22T00:42:06;4.22;;;3.38;;
16862;SDS011;52193;48.216;-1.698;2023-06-22T00:44:33;3.67;;;3.30;;
16862;SDS011;52193;48.216;-1.698;2023-06-22T00:47:00;3.55;;;2.85;;
16862;SDS011;52193;48.216;-1.698;2023-06-22T00:49:27;3.60;;;3.10;;
16862;SDS011;52193;48.216;-1.698;2023-06-22T00:51:54;2.90;;;2.70;;
16862;SDS011;52193;48.216;-1.698;2023-06-22T00:54:22;4.55;;;3.55;;
16862;SDS011;52193;48.216;-1.698;2023-06-22T00:56:49;3.33;;;3.05;;
16862;SDS011;52193;48.216;-1.698;2023-06-22T00:59:20;3.33;;;3.03;;
16862;SDS011;52193;48.216;-1.698;2023-06-22T01:01:48;3.00;;;2.70;;
16862;SDS011;52193;48.216;-1.698;2023-06-22T01:04:15;3.30;;;3.00;;
16862;SDS011;52193;48.216;-1.698;2023-06-22T01:06:45;3.95;;;3.10;;
16862;SDS011;52193;48.216;-1.698;2023-06-22T01:09:34;4.45;;;3.35;;
16862;SDS011;52193;48.216;-1.698;2023-06-22T01:12:10;3.60;;;3.30;;
16862;SDS011;52193;48.216;-1.698;2023-06-22T01:14:40;3.13;;;2.92;;
16862;SDS011;52193;48.216;-1.698;2023-06-22T01:17:13;4.97;;;3.17;;
16862;SDS011;52193;48.216;-1.698;2023-06-22T01:19:43;3.70;;;3.40;;
16862;SDS011;52193;48.216;-1.698;2023-06-22T01:22:13;3.00;;;2.80;;
16862;SDS011;52193;48.216;-1.698;2023-06-22T01:24:45;3.22;;;3.03;;
16862;SDS011;52193;48.216;-1.698;2023-06-22T01:27:24;3.53;;;2.97;;
16862;SDS011;52193;48.216;-1.698;2023-06-22T01:29:59;3.10;;;2.90;;
16862;SDS011;52193;48.216;-1.698;2023-06-22T01:32:31;4.07;;;2.97;;
16862;SDS011;52193;48.216;-1.698;2023-06-22T01:35:00;3.70;;;3.33;;
16862;SDS011;52193;48.216;-1.698;2023-06-22T01:37:29;3.50;;;3.20;;
16862;SDS011;52193;48.216;-1.698;2023-06-22T01:39:58;3.47;;;3.00;;
16862;SDS011;52193;48.216;-1.698;2023-06-22T01:42:26;3.60;;;3.30;;
16862;SDS011;52193;48.216;-1.698;2023-06-22T01:44:53;3.58;;;3.28;;
16862;SDS011;52193;48.216;-1.698;2023-06-22T01:47:22;3.13;;;2.90;;
16862;SDS011;52193;48.216;-1.698;2023-06-22T01:49:49;3.30;;;3.00;;
16862;SDS011;52193;48.216;-1.698;2023-06-22T01:52:17;3.05;;;2.85;;
16862;SDS011;52193;48.216;-1.698;2023-06-22T01:54:46;4.35;;;2.88;;
16862;SDS011;52193;48.216;-1.698;2023-06-22T01:57:13;2.90;;;2.70;;
16862;SDS011;52193;48.216;-1.698;2023-06-22T01:59:42;3.00;;;2.67;;
16862;SDS011;52193;48.216;-1.698;2023-06-22T02:02:15;3.00;;;2.80;;
16862;SDS011;52193;48.216;-1.698;2023-06-22T02:04:47;3.35;;;3.10;;
16862;SDS011;52193;48.216;-1.698;2023-06-22T02:07:18;3.15;;;2.92;;
16862;SDS011;52193;48.216;-1.698;2023-06-22T02:09:46;4.28;;;3.15;;
16862;SDS011;52193;48.216;-1.698;2023-06-22T02:12:17;3.10;;;2.75;;
16862;SDS011;52193;48.216;-1.698;2023-06-22T02:14:48;2.67;;;2.47;;
16862;SDS011;52193;48.216;-1.698;2023-06-22T02:17:17;5.38;;;2.88;;
16862;SDS011;52193;48.216;-1.698;2023-06-22T02:19:44;3.15;;;2.95;;
16862;SDS011;52193;48.216;-1.698;2023-06-22T02:22:12;3.20;;;3.00;;
16862;SDS011;52193;48.216;-1.698;2023-06-22T02:24:39;3.17;;;2.97;;
16862;SDS011;52193;48.216;-1.698;2023-06-22T02:27:06;3.15;;;2.95;;
16862;SDS011;52193;48.216;-1.698;2023-06-22T02:29:33;4.40;;;2.95;;
16862;SDS011;52193;48.216;-1.698;2023-06-22T02:32:00;3.10;;;2.90;;
16862;SDS011;52193;48.216;-1.698;2023-06-22T02:34:29;3.10;;;2.90;;
16862;SDS011;52193;48.216;-1.698;2023-06-22T02:36:56;2.83;;;2.55;;
16862;SDS011;52193;48.216;-1.698;2023-06-22T02:39:27;2.78;;;2.67;;
16862;SDS011;52193;48.216;-1.698;2023-06-22T02:41:54;3.03;;;2.83;;
16862;SDS011;52193;48.216;-1.698;2023-06-22T02:44:21;2.97;;;2.85;;
16862;SDS011;52193;48.216;-1.698;2023-06-22T02:46:48;3.20;;;2.90;;
16862;SDS011;52193;48.216;-1.698;2023-06-22T02:49:15;3.30;;;3.10;;
16862;SDS011;52193;48.216;-1.698;2023-06-22T02:51:44;2.90;;;2.70;;
16862;SDS011;52193;48.216;-1.698;2023-06-22T02:54:12;2.95;;;2.72;;
16862;SDS011;52193;48.216;-1.698;2023-06-22T02:56:40;2.95;;;2.75;;
16862;SDS011;52193;48.216;-1.698;2023-06-22T02:59:08;2.80;;;2.60;;
16862;SDS011;52193;48.216;-1.698;2023-06-22T03:01:36;2.80;;;2.60;;
16862;SDS011;52193;48.216;-1.698;2023-06-22T03:04:05;3.88;;;3.05;;
16862;SDS011;52193;48.216;-1.698;2023-06-22T03:06:32;2.83;;;2.63;;
16862;SDS011;52193;48.216;-1.698;2023-06-22T03:09:00;3.35;;;3.05;;
16862;SDS011;52193;48.216;-1.698;2023-06-22T03:11:29;3.40;;;3.10;;
16862;SDS011;52193;48.216;-1.698;2023-06-22T03:13:58;3.08;;;2.88;;
16862;SDS011;52193;48.216;-1.698;2023-06-22T03:16:25;3.42;;;2.92;;
16862;SDS011;52193;48.216;-1.698;2023-06-22T03:18:53;3.10;;;2.90;;
16862;SDS011;52193;48.216;-1.698;2023-06-22T03:21:21;3.53;;;3.13;;
16862;SDS011;52193;48.216;-1.698;2023-06-22T03:23:49;3.75;;;3.45;;
16862;SDS011;52193;48.216;-1.698;2023-06-22T03:26:16;3.00;;;2.65;;
16862;SDS011;52193;48.216;-1.698;2023-06-22T03:28:44;2.90;;;2.70;;
16862;SDS011;52193;48.216;-1.698;2023-06-22T03:31:12;3.50;;;3.20;;
16862;SDS011;52193;48.216;-1.698;2023-06-22T03:33:39;4.05;;;2.80;;
16862;SDS011;52193;48.216;-1.698;2023-06-22T03:36:06;2.97;;;2.78;;
16862;SDS011;52193;48.216;-1.698;2023-06-22T03:38:33;2.88;;;2.67;;
16862;SDS011;52193;48.216;-1.698;2023-06-22T03:41:00;3.03;;;2.60;;
16862;SDS011;52193;48.216;-1.698;2023-06-22T03:43:27;3.10;;;2.83;;
16862;SDS011;52193;48.216;-1.698;2023-06-22T03:45:53;3.08;;;2.70;;
16862;SDS011;52193;48.216;-1.698;2023-06-22T03:48:22;2.90;;;2.70;;
16862;SDS011;52193;48.216;-1.698;2023-06-22T03:50:49;2.97;;;2.78;;
16862;SDS011;52193;48.216;-1.698;2023-06-22T03:53:16;3.17;;;2.90;;
16862;SDS011;52193;48.216;-1.698;2023-06-22T03:55:47;3.03;;;2.75;;
16862;SDS011;52193;48.216;-1.698;2023-06-22T03:58:15;2.88;;;2.53;;
16862;SDS011;52193;48.216;-1.698;2023-06-22T04:00:44;2.60;;;2.50;;
16862;SDS011;52193;48.216;-1.698;2023-06-22T04:03:12;2.95;;;2.75;;
16862;SDS011;52193;48.216;-1.698;2023-06-22T04:05:40;2.92;;;2.72;;
16862;SDS011;52193;48.216;-1.698;2023-06-22T04:08:07;3.65;;;3.22;;
16862;SDS011;52193;48.216;-1.698;2023-06-22T04:10:34;3.28;;;2.95;;
16862;SDS011;52193;48.216;-1.698;2023-06-22T04:13:01;2.92;;;2.72;;
16862;SDS011;52193;48.216;-1.698;2023-06-22T04:15:28;3.00;;;2.80;;
16862;SDS011;52193;48.216;-1.698;2023-06-22T04:17:55;3.95;;;3.15;;
16862;SDS011;52193;48.216;-1.698;2023-06-22T04:20:23;3.10;;;2.90;;
16862;SDS011;52193;48.216;-1.698;2023-06-22T04:22:52;2.40;;;2.30;;
16862;SDS011;52193;48.216;-1.698;2023-06-22T04:25:20;3.17;;;2.88;;
16862;SDS011;52193;48.216;-1.698;2023-06-22T04:27:47;2.85;;;2.65;;
16862;SDS011;52193;48.216;-1.698;2023-06-22T04:30:14;2.90;;;2.70;;
16862;SDS011;52193;48.216;-1.698;2023-06-22T04:32:42;2.85;;;2.65;;
16862;SDS011;52193;48.216;-1.698;2023-06-22T04:35:09;3.20;;;3.00;;
16862;SDS011;52193;48.216;-1.698;2023-06-22T04:37:36;3.55;;;2.88;;
16862;SDS011;52193;48.216;-1.698;2023-06-22T04:40:06;3.55;;;3.25;;
16862;SDS011;52193;48.216;-1.698;2023-06-22T04:42:34;3.08;;;2.92;;
16862;SDS011;52193;48.216;-1.698;2023-06-22T04:45:02;3.20;;;3.00;;
16862;SDS011;52193;48.216;-1.698;2023-06-22T04:47:29;3.42;;;3.22;;
16862;SDS011;52193;48.216;-1.698;2023-06-22T04:49:56;3.35;;;3.15;;
16862;SDS011;52193;48.216;-1.698;2023-06-22T04:52:23;3.47;;;3.17;;
16862;SDS011;52193;48.216;-1.698;2023-06-22T04:54:50;3.33;;;3.13;;
16862;SDS011;52193;48.216;-1.698;2023-06-22T04:57:22;3.25;;;3.05;;
16862;SDS011;52193;48.216;-1.698;2023-06-22T04:59:55;3.72;;;3.47;;
16862;SDS011;52193;48.216;-1.698;2023-06-22T05:02:22;3.05;;;2.78;;
16862;SDS011;52193;48.216;-1.698;2023-06-22T05:04:57;3.42;;;3.13;;
16862;SDS011;52193;48.216;-1.698;2023-06-22T05:07:23;3.70;;;3.20;;
16862;SDS011;52193;48.216;-1.698;2023-06-22T05:09:51;3.70;;;3.05;;
16862;SDS011;52193;48.216;-1.698;2023-06-22T05:12:18;3.83;;;2.90;;
16862;SDS011;52193;48.216;-1.698;2023-06-22T05:14:47;3.50;;;2.60;;
16862;SDS011;52193;48.216;-1.698;2023-06-22T05:17:14;2.97;;;2.78;;
16862;SDS011;52193;48.216;-1.698;2023-06-22T05:19:44;3.13;;;2.92;;
16862;SDS011;52193;48.216;-1.698;2023-06-22T05:22:13;2.83;;;2.63;;
16862;SDS011;52193;48.216;-1.698;2023-06-22T05:24:40;3.42;;;3.13;;
16862;SDS011;52193;48.216;-1.698;2023-06-22T05:27:07;3.17;;;2.88;;
16862;SDS011;52193;48.216;-1.698;2023-06-22T05:29:34;3.20;;;2.80;;
16862;SDS011;52193;48.216;-1.698;2023-06-22T05:32:03;3.38;;;3.10;;
16862;SDS011;52193;48.216;-1.698;2023-06-22T05:34:30;4.22;;;3.38;;
16862;SDS011;52193;48.216;-1.698;2023-06-22T05:36:57;3.33;;;3.08;;
16862;SDS011;52193;48.216;-1.698;2023-06-22T05:39:24;3.70;;;3.40;;
16862;SDS011;52193;48.216;-1.698;2023-06-22T05:41:51;3.03;;;2.72;;
16862;SDS011;52193;48.216;-1.698;2023-06-22T05:44:18;3.22;;;3.03;;
16862;SDS011;52193;48.216;-1.698;2023-06-22T05:46:45;3.00;;;2.80;;
16862;SDS011;52193;48.216;-1.698;2023-06-22T05:49:14;2.97;;;2.78;;
16862;SDS011;52193;48.216;-1.698;2023-06-22T05:51:42;3.55;;;3.33;;
16862;SDS011;52193;48.216;-1.698;2023-06-22T05:54:09;3.92;;;3.28;;
16862;SDS011;52193;48.216;-1.698;2023-06-22T05:56:38;3.15;;;2.88;;
16862;SDS011;52193;48.216;-1.698;2023-06-22T05:59:05;2.95;;;2.75;;
16862;SDS011;52193;48.216;-1.698;2023-06-22T06:01:32;3.03;;;2.83;;
16862;SDS011;52193;48.216;-1.698;2023-06-22T06:04:01;3.08;;;2.85;;
16862;SDS011;52193;48.216;-1.698;2023-06-22T06:06:30;3.25;;;2.95;;
16862;SDS011;52193;48.216;-1.698;2023-06-22T06:08:57;3.15;;;2.95;;
16862;SDS011;52193;48.216;-1.698;2023-06-22T06:11:24;3.53;;;2.65;;
16862;SDS011;52193;48.216;-1.698;2023-06-22T06:13:51;3.85;;;3.55;;
16862;SDS011;52193;48.216;-1.698;2023-06-22T06:16:18;3.60;;;3.30;;
16862;SDS011;52193;48.216;-1.698;2023-06-22T06:18:45;3.33;;;3.00;;
16862;SDS011;52193;48.216;-1.698;2023-06-22T06:21:13;3.92;;;3.40;;
16862;SDS011;52193;48.216;-1.698;2023-06-22T06:23:42;3.88;;;3.50;;
16862;SDS011;52193;48.216;-1.698;2023-06-22T06:26:09;5.32;;;4.35;;
16862;SDS011;52193;48.216;-1.698;2023-06-22T06:28:35;5.05;;;3.92;;
16862;SDS011;52193;48.216;-1.698;2023-06-22T06:31:02;3.58;;;3.33;;
16862;SDS011;52193;48.216;-1.698;2023-06-22T06:33:33;3.65;;;3.35;;
16862;SDS011;52193;48.216;-1.698;2023-06-22T06:36:00;3.33;;;3.10;;
16862;SDS011;52193;48.216;-1.698;2023-06-22T06:38:28;3.55;;;3.25;;
16862;SDS011;52193;48.216;-1.698;2023-06-22T06:40:57;3.47;;;3.17;;
16862;SDS011;52193;48.216;-1.698;2023-06-22T06:43:24;3.20;;;2.90;;
16862;SDS011;52193;48.216;-1.698;2023-06-22T06:45:52;3.92;;;3.50;;
16862;SDS011;52193;48.216;-1.698;2023-06-22T06:48:19;3.33;;;3.03;;
16862;SDS011;52193;48.216;-1.698;2023-06-22T06:50:45;3.58;;;3.00;;
16862;SDS011;52193;48.216;-1.698;2023-06-22T06:53:12;3.42;;;3.17;;
16862;SDS011;52193;48.216;-1.698;2023-06-22T06:55:39;3.25;;;2.95;;
16862;SDS011;52193;48.216;-1.698;2023-06-22T06:58:08;3.45;;;3.15;;
16862;SDS011;52193;48.216;-1.698;2023-06-22T07:00:37;3.05;;;2.85;;
16862;SDS011;52193;48.216;-1.698;2023-06-22T07:03:04;4.90;;;2.97;;
16862;SDS011;52193;48.216;-1.698;2023-06-22T07:05:32;3.25;;;2.83;;
16862;SDS011;52193;48.216;-1.698;2023-06-22T07:07:59;4.88;;;4.45;;
16862;SDS011;52193;48.216;-1.698;2023-06-22T07:10:26;2.90;;;2.70;;
16862;SDS011;52193;48.216;-1.698;2023-06-22T07:12:53;3.80;;;3.13;;
16862;SDS011;52193;48.216;-1.698;2023-06-22T07:15:21;4.15;;;2.80;;
16862;SDS011;52193;48.216;-1.698;2023-06-22T07:17:48;3.70;;;3.05;;
16862;SDS011;52193;48.216;-1.698;2023-06-22T07:20:15;3.00;;;2.80;;
16862;SDS011;52193;48.216;-1.698;2023-06-22T07:22:43;2.97;;;2.67;;
16862;SDS011;52193;48.216;-1.698;2023-06-22T07:25:11;2.53;;;2.42;;
16862;SDS011;52193;48.216;-1.698;2023-06-22T07:27:43;3.92;;;2.90;;
16862;SDS011;52193;48.216;-1.698;2023-06-22T07:30:11;4.07;;;3.10;;
16862;SDS011;52193;48.216;-1.698;2023-06-22T07:32:40;3.28;;;3.05;;
16862;SDS011;52193;48.216;-1.698;2023-06-22T07:35:07;3.50;;;3.20;;
16862;SDS011;52193;48.216;-1.698;2023-06-22T07:37:35;4.93;;;3.00;;
16862;SDS011;52193;48.216;-1.698;2023-06-22T07:40:03;2.95;;;2.70;;
16862;SDS011;52193;48.216;-1.698;2023-06-22T07:42:31;3.00;;;2.80;;
16862;SDS011;52193;48.216;-1.698;2023-06-22T07:44:59;3.30;;;3.00;;
16862;SDS011;52193;48.216;-1.698;2023-06-22T07:47:26;3.78;;;2.83;;
16862;SDS011;52193;48.216;-1.698;2023-06-22T07:49:55;3.20;;;2.90;;
16862;SDS011;52193;48.216;-1.698;2023-06-22T07:52:26;2.83;;;2.60;;
16862;SDS011;52193;48.216;-1.698;2023-06-22T07:54:53;3.40;;;2.70;;
16862;SDS011;52193;48.216;-1.698;2023-06-22T07:57:20;2.80;;;2.60;;
16862;SDS011;52193;48.216;-1.698;2023-06-22T07:59:47;2.45;;;2.35;;
16862;SDS011;52193;48.216;-1.698;2023-06-22T08:02:14;2.70;;;2.50;;
16862;SDS011;52193;48.216;-1.698;2023-06-22T08:04:41;2.97;;;2.53;;
16862;SDS011;52193;48.216;-1.698;2023-06-22T08:07:09;2.88;;;2.40;;
16862;SDS011;52193;48.216;-1.698;2023-06-22T08:09:36;2.70;;;2.50;;
16862;SDS011;52193;48.216;-1.698;2023-06-22T08:12:03;2.92;;;2.63;;
16862;SDS011;52193;48.216;-1.698;2023-06-22T08:14:31;2.53;;;2.33;;
16862;SDS011;52193;48.216;-1.698;2023-06-22T08:17:01;2.80;;;2.60;;
16862;SDS011;52193;48.216;-1.698;2023-06-22T08:19:28;2.53;;;2.33;;
16862;SDS011;52193;48.216;-1.698;2023-06-22T08:21:55;2.33;;;2.22;;
16862;SDS011;52193;48.216;-1.698;2023-06-22T08:24:24;2.65;;;2.20;;
16862;SDS011;52193;48.216;-1.698;2023-06-22T08:26:51;3.50;;;2.40;;
16862;SDS011;52193;48.216;-1.698;2023-06-22T08:29:18;2.38;;;2.17;;
16862;SDS011;52193;48.216;-1.698;2023-06-22T08:31:45;2.70;;;2.50;;
16862;SDS011;52193;48.216;-1.698;2023-06-22T08:34:12;2.88;;;2.67;;
16862;SDS011;52193;48.216;-1.698;2023-06-22T08:36:39;2.30;;;2.17;;
16862;SDS011;52193;48.216;-1.698;2023-06-22T08:39:09;2.53;;;2.33;;
16862;SDS011;52193;48.216;-1.698;2023-06-22T08:41:38;3.15;;;2.95;;
16862;SDS011;52193;48.216;-1.698;2023-06-22T08:44:05;2.78;;;2.58;;
16862;SDS011;52193;48.216;-1.698;2023-06-22T08:46:32;3.38;;;2.55;;
16862;SDS011;52193;48.216;-1.698;2023-06-22T08:48:59;2.67;;;2.38;;
16862;SDS011;52193;48.216;-1.698;2023-06-22T08:51:26;2.40;;;2.30;;
16862;SDS011;52193;48.216;-1.698;2023-06-22T08:53:53;2.25;;;2.15;;
16862;SDS011;52193;48.216;-1.698;2023-06-22T08:56:20;2.72;;;2.53;;
16862;SDS011;52193;48.216;-1.698;2023-06-22T08:58:48;3.17;;;2.75;;
16862;SDS011;52193;48.216;-1.698;2023-06-22T09:01:15;3.35;;;2.58;;
16862;SDS011;52193;48.216;-1.698;2023-06-22T09:03:42;2.78;;;2.47;;
16862;SDS011;52193;48.216;-1.698;2023-06-22T09:06:09;3.15;;;2.85;;
16862;SDS011;52193;48.216;-1.698;2023-06-22T09:08:37;2.50;;;2.30;;
16862;SDS011;52193;48.216;-1.698;2023-06-22T09:11:04;2.45;;;2.25;;
16862;SDS011;52193;48.216;-1.698;2023-06-22T09:13:31;2.50;;;2.30;;
16862;SDS011;52193;48.216;-1.698;2023-06-22T09:16:01;3.80;;;2.60;;
16862;SDS011;52193;48.216;-1.698;2023-06-22T09:18:28;2.85;;;2.47;;
16862;SDS011;52193;48.216;-1.698;2023-06-22T09:20:55;2.60;;;2.40;;
16862;SDS011;52193;48.216;-1.698;2023-06-22T09:23:22;2.95;;;2.75;;
16862;SDS011;52193;48.216;-1.698;2023-06-22T09:25:49;2.70;;;2.50;;
16862;SDS011;52193;48.216;-1.698;2023-06-22T09:28:16;3.25;;;2.95;;
16862;SDS011;52193;48.216;-1.698;2023-06-22T09:30:43;4.18;;;2.88;;
16862;SDS011;52193;48.216;-1.698;2023-06-22T09:33:12;2.50;;;2.28;;
16862;SDS011;52193;48.216;-1.698;2023-06-22T09:35:39;3.05;;;2.50;;
16862;SDS011;52193;48.216;-1.698;2023-06-22T09:38:06;2.88;;;2.50;;
16862;SDS011;52193;48.216;-1.698;2023-06-22T09:40:32;2.42;;;2.22;;
16862;SDS011;52193;48.216;-1.698;2023-06-22T09:43:05;2.50;;;2.30;;
16862;SDS011;52193;48.216;-1.698;2023-06-22T09:45:31;2.55;;;2.35;;
16862;SDS011;52193;48.216;-1.698;2023-06-22T09:47:58;2.88;;;2.20;;
16862;SDS011;52193;48.216;-1.698;2023-06-22T09:50:27;2.38;;;2.28;;
16862;SDS011;52193;48.216;-1.698;2023-06-22T09:52:54;2.58;;;2.28;;
16862;SDS011;52193;48.216;-1.698;2023-06-22T09:55:20;2.70;;;2.45;;
16862;SDS011;52193;48.216;-1.698;2023-06-22T09:57:48;2.55;;;2.45;;
16862;SDS011;52193;48.216;-1.698;2023-06-22T10:00:15;3.38;;;2.80;;
16862;SDS011;52193;48.216;-1.698;2023-06-22T10:02:46;2.80;;;2.60;;
16862;SDS011;52193;48.216;-1.698;2023-06-22T10:05:13;2.72;;;2.50;;
16862;SDS011;52193;48.216;-1.698;2023-06-22T10:07:41;6.28;;;3.40;;
16862;SDS011;52193;48.216;-1.698;2023-06-22T10:10:09;3.70;;;2.40;;
16862;SDS011;52193;48.216;-1.698;2023-06-22T10:12:36;2.70;;;2.50;;
16862;SDS011;52193;48.216;-1.698;2023-06-22T10:15:07;2.60;;;2.40;;
16862;SDS011;52193;48.216;-1.698;2023-06-22T10:17:34;3.33;;;2.78;;
16862;SDS011;52193;48.216;-1.698;2023-06-22T10:20:01;2.17;;;2.08;;
16862;SDS011;52193;48.216;-1.698;2023-06-22T10:22:36;4.10;;;2.70;;
16862;SDS011;52193;48.216;-1.698;2023-06-22T10:25:05;2.53;;;2.33;;
16862;SDS011;52193;48.216;-1.698;2023-06-22T10:27:32;2.22;;;2.13;;
16862;SDS011;52193;48.216;-1.698;2023-06-22T10:30:00;2.53;;;2.33;;
16862;SDS011;52193;48.216;-1.698;2023-06-22T10:32:27;3.90;;;2.60;;
16862;SDS011;52193;48.216;-1.698;2023-06-22T10:34:54;2.70;;;2.50;;
16862;SDS011;52193;48.216;-1.698;2023-06-22T10:37:21;2.80;;;2.60;;
16862;SDS011;52193;48.216;-1.698;2023-06-22T10:39:48;3.30;;;3.00;;
16862;SDS011;52193;48.216;-1.698;2023-06-22T10:42:17;3.90;;;3.60;;
16862;SDS011;52193;48.216;-1.698;2023-06-22T10:44:43;3.40;;;3.10;;
16862;SDS011;52193;48.216;-1.698;2023-06-22T10:47:10;2.78;;;2.58;;
16862;SDS011;52193;48.216;-1.698;2023-06-22T10:49:38;2.20;;;2.10;;
16862;SDS011;52193;48.216;-1.698;2023-06-22T10:52:05;2.58;;;2.38;;
16862;SDS011;52193;48.216;-1.698;2023-06-22T10:54:33;2.50;;;2.30;;
16862;SDS011;52193;48.216;-1.698;2023-06-22T10:57:00;3.03;;;2.55;;
16862;SDS011;52193;48.216;-1.698;2023-06-22T10:59:29;2.58;;;2.38;;
16862;SDS011;52193;48.216;-1.698;2023-06-22T11:01:56;2.95;;;2.42;;
16862;SDS011;52193;48.216;-1.698;2023-06-22T11:04:23;2.67;;;2.50;;
16862;SDS011;52193;48.216;-1.698;2023-06-22T11:06:50;2.38;;;2.17;;
16862;SDS011;52193;48.216;-1.698;2023-06-22T11:09:17;2.13;;;2.03;;
16862;SDS011;52193;48.216;-1.698;2023-06-22T11:11:46;2.80;;;2.50;;
16862;SDS011;52193;48.216;-1.698;2023-06-22T11:14:13;2.22;;;2.13;;
16862;SDS011;52193;48.216;-1.698;2023-06-22T11:16:41;2.65;;;2.45;;
16862;SDS011;52193;48.216;-1.698;2023-06-22T11:19:08;2.45;;;2.25;;
16862;SDS011;52193;48.216;-1.698;2023-06-22T11:21:35;2.80;;;2.60;;
16862;SDS011;52193;48.216;-1.698;2023-06-22T11:24:02;2.60;;;2.40;;
16862;SDS011;52193;48.216;-1.698;2023-06-22T11:26:29;2.75;;;2.40;;
16862;SDS011;52193;48.216;-1.698;2023-06-22T11:28:57;3.00;;;2.42;;
16862;SDS011;52193;48.216;-1.698;2023-06-22T11:31:24;2.47;;;2.00;;
16862;SDS011;52193;48.216;-1.698;2023-06-22T11:33:52;2.65;;;2.10;;
16862;SDS011;52193;48.216;-1.698;2023-06-22T11:36:19;2.38;;;2.13;;
16862;SDS011;52193;48.216;-1.698;2023-06-22T11:38:46;2.17;;;2.08;;
16862;SDS011;52193;48.216;-1.698;2023-06-22T11:41:13;2.63;;;2.42;;
16862;SDS011;52193;48.216;-1.698;2023-06-22T11:43:40;2.70;;;2.40;;
16862;SDS011;52193;48.216;-1.698;2023-06-22T11:46:07;2.75;;;2.55;;
16862;SDS011;52193;48.216;-1.698;2023-06-22T11:48:34;2.97;;;2.60;;
16862;SDS011;52193;48.216;-1.698;2023-06-22T11:51:02;2.42;;;2.20;;
16862;SDS011;52193;48.216;-1.698;2023-06-22T11:53:31;4.05;;;2.55;;
16862;SDS011;52193;48.216;-1.698;2023-06-22T11:55:59;2.63;;;2.42;;
16862;SDS011;52193;48.216;-1.698;2023-06-22T11:58:26;2.30;;;2.17;;
16862;SDS011;52193;48.216;-1.698;2023-06-22T12:00:54;2.53;;;2.42;;
16862;SDS011;52193;48.216;-1.698;2023-06-22T12:03:21;2.38;;;2.28;;
16862;SDS011;52193;48.216;-1.698;2023-06-22T12:05:47;2.50;;;2.30;;
16862;SDS011;52193;48.216;-1.698;2023-06-22T12:08:17;2.50;;;2.40;;
16862;SDS011;52193;48.216;-1.698;2023-06-22T12:10:44;2.55;;;2.35;;
16862;SDS011;52193;48.216;-1.698;2023-06-22T12:13:11;3.60;;;2.55;;
16862;SDS011;52193;48.216;-1.698;2023-06-22T12:15:38;2.70;;;2.50;;
16862;SDS011;52193;48.216;-1.698;2023-06-22T12:18:04;4.55;;;2.60;;
16862;SDS011;52193;48.216;-1.698;2023-06-22T12:20:31;2.92;;;2.70;;
16862;SDS011;52193;48.216;-1.698;2023-06-22T12:22:58;2.63;;;2.42;;
16862;SDS011;52193;48.216;-1.698;2023-06-22T12:25:27;2.75;;;2.55;;
16862;SDS011;52193;48.216;-1.698;2023-06-22T12:27:53;2.90;;;2.70;;
16862;SDS011;52193;48.216;-1.698;2023-06-22T12:30:20;3.45;;;2.67;;
16862;SDS011;52193;48.216;-1.698;2023-06-22T12:32:47;2.72;;;2.20;;
16862;SDS011;52193;48.216;-1.698;2023-06-22T12:35:14;3.20;;;2.60;;
16862;SDS011;52193;48.216;-1.698;2023-06-22T12:37:41;3.28;;;2.97;;
16862;SDS011;52193;48.216;-1.698;2023-06-22T12:40:09;2.95;;;2.70;;
16862;SDS011;52193;48.216;-1.698;2023-06-22T12:42:38;3.10;;;2.70;;
16862;SDS011;52193;48.216;-1.698;2023-06-22T12:45:07;2.53;;;2.33;;
16862;SDS011;52193;48.216;-1.698;2023-06-22T12:47:34;3.20;;;2.10;;
16862;SDS011;52193;48.216;-1.698;2023-06-22T12:50:01;2.53;;;2.20;;
16862;SDS011;52193;48.216;-1.698;2023-06-22T12:52:29;2.30;;;2.10;;
16862;SDS011;52193;48.216;-1.698;2023-06-22T12:54:57;2.10;;;1.90;;
16862;SDS011;52193;48.216;-1.698;2023-06-22T12:57:24;3.78;;;2.13;;
16862;SDS011;52193;48.216;-1.698;2023-06-22T12:59:52;1.90;;;1.80;;
16862;SDS011;52193;48.216;-1.698;2023-06-22T13:02:19;2.00;;;1.90;;
16862;SDS011;52193;48.216;-1.698;2023-06-22T13:04:46;1.77;;;1.67;;
16862;SDS011;52193;48.216;-1.698;2023-06-22T13:07:13;4.00;;;1.85;;
16862;SDS011;52193;48.216;-1.698;2023-06-22T13:09:40;2.95;;;2.08;;
16862;SDS011;52193;48.216;-1.698;2023-06-22T13:12:07;2.28;;;2.03;;
16862;SDS011;52193;48.216;-1.698;2023-06-22T13:14:34;1.92;;;1.75;;
16862;SDS011;52193;48.216;-1.698;2023-06-22T13:17:03;2.17;;;1.90;;
16862;SDS011;52193;48.216;-1.698;2023-06-22T13:19:30;1.90;;;1.80;;
16862;SDS011;52193;48.216;-1.698;2023-06-22T13:21:57;1.88;;;1.67;;
16862;SDS011;52193;48.216;-1.698;2023-06-22T13:24:25;1.80;;;1.70;;
16862;SDS011;52193;48.216;-1.698;2023-06-22T13:26:52;1.80;;;1.70;;
16862;SDS011;52193;48.216;-1.698;2023-06-22T13:29:20;1.98;;;1.80;;
16862;SDS011;52193;48.216;-1.698;2023-06-22T13:31:47;1.63;;;1.52;;
16862;SDS011;52193;48.216;-1.698;2023-06-22T13:34:15;2.42;;;1.77;;
16862;SDS011;52193;48.216;-1.698;2023-06-22T13:36:42;1.73;;;1.60;;
16862;SDS011;52193;48.216;-1.698;2023-06-22T13:39:09;3.65;;;1.58;;
16862;SDS011;52193;48.216;-1.698;2023-06-22T13:41:35;2.13;;;1.60;;
16862;SDS011;52193;48.216;-1.698;2023-06-22T13:44:02;1.42;;;1.38;;
16862;SDS011;52193;48.216;-1.698;2023-06-22T13:46:29;1.83;;;1.50;;
16862;SDS011;52193;48.216;-1.698;2023-06-22T13:48:56;3.47;;;1.60;;
16862;SDS011;52193;48.216;-1.698;2023-06-22T13:51:25;1.65;;;1.55;;
16862;SDS011;52193;48.216;-1.698;2023-06-22T13:53:51;1.35;;;1.25;;
16862;SDS011;52193;48.216;-1.698;2023-06-22T13:56:19;1.33;;;1.23;;
16862;SDS011;52193;48.216;-1.698;2023-06-22T13:58:46;1.70;;;1.60;;
16862;SDS011;52193;48.216;-1.698;2023-06-22T14:01:13;2.67;;;1.45;;
16862;SDS011;52193;48.216;-1.698;2023-06-22T14:03:40;3.00;;;1.30;;
16862;SDS011;52193;48.216;-1.698;2023-06-22T14:06:09;2.47;;;1.63;;
16862;SDS011;52193;48.216;-1.698;2023-06-22T14:08:38;1.60;;;1.50;;
16862;SDS011;52193;48.216;-1.698;2023-06-22T14:11:05;2.65;;;1.30;;
16862;SDS011;52193;48.216;-1.698;2023-06-22T14:13:32;1.42;;;1.33;;
16862;SDS011;52193;48.216;-1.698;2023-06-22T14:16:00;1.50;;;1.40;;
16862;SDS011;52193;48.216;-1.698;2023-06-22T14:18:29;1.30;;;1.20;;
16862;SDS011;52193;48.216;-1.698;2023-06-22T14:20:55;1.42;;;1.33;;
16862;SDS011;52193;48.216;-1.698;2023-06-22T14:23:22;1.38;;;1.27;;
16862;SDS011;52193;48.216;-1.698;2023-06-22T14:25:51;1.30;;;1.20;;
16862;SDS011;52193;48.216;-1.698;2023-06-22T14:28:18;1.17;;;1.17;;
16862;SDS011;52193;48.216;-1.698;2023-06-22T14:30:44;1.27;;;1.17;;
16862;SDS011;52193;48.216;-1.698;2023-06-22T14:33:11;1.67;;;1.30;;
16862;SDS011;52193;48.216;-1.698;2023-06-22T14:35:39;1.15;;;1.15;;